createdAt,value
2016-06-13T00:00:30.856Z,997.44
2016-06-13T00:01:30.844Z,997.42
2016-06-13T00:02:30.816Z,997.43
2016-06-13T00:03:30.802Z,997.43
2016-06-13T00:04:30.774Z,997.39
2016-06-13T00:05:30.762Z,997.36
2016-06-13T00:06:30.750Z,997.35
2016-06-13T00:07:30.722Z,997.34
2016-06-13T00:08:30.692Z,997.34
2016-06-13T00:09:30.681Z,997.3
2016-06-13T00:10:30.652Z,997.32
2016-06-13T00:11:30.640Z,997.3
2016-06-13T00:12:30.612Z,997.3
2016-06-13T00:13:30.600Z,997.29
2016-06-13T00:14:30.571Z,997.27
2016-06-13T00:15:30.605Z,997.25
2016-06-13T00:16:30.530Z,997.28
2016-06-13T00:17:30.518Z,997.27
2016-06-13T00:18:30.490Z,997.27
2016-06-13T00:19:30.476Z,997.27
2016-06-13T00:20:30.449Z,997.22
2016-06-13T00:21:30.436Z,997.27
2016-06-13T00:22:30.408Z,997.27
2016-06-13T00:23:30.396Z,997.23
2016-06-13T00:24:30.368Z,997.23
2016-06-13T00:25:30.370Z,997.24
2016-06-13T00:26:30.326Z,997.24
2016-06-13T00:27:30.314Z,997.23
2016-06-13T00:28:30.301Z,997.21
2016-06-13T00:29:30.274Z,997.22
2016-06-13T00:30:30.260Z,997.21
2016-06-13T00:31:30.232Z,997.25
2016-06-13T00:32:30.220Z,997.2
2016-06-13T00:33:30.192Z,997.17
2016-06-13T00:34:30.180Z,997.17
2016-06-13T00:35:30.151Z,997.16
2016-06-13T00:36:30.139Z,997.12
2016-06-13T00:37:30.110Z,997.15
2016-06-13T00:38:30.098Z,997.15
2016-06-13T00:39:30.070Z,997.15
2016-06-13T00:40:30.058Z,997.15
2016-06-13T00:41:30.341Z,997.11
2016-06-13T00:42:30.016Z,997.11
2016-06-13T00:43:29.989Z,997.11
2016-06-13T00:44:29.976Z,997.08
2016-06-13T00:45:29.947Z,997.06
2016-06-13T00:46:29.935Z,997.06
2016-06-13T00:47:29.906Z,997.07
2016-06-13T00:48:29.894Z,997.07
2016-06-13T00:49:29.866Z,997.03
2016-06-13T00:50:29.854Z,997.07
2016-06-13T00:51:29.825Z,997.05
2016-06-13T00:52:29.813Z,997.06
2016-06-13T00:53:29.816Z,997.05
2016-06-13T00:54:29.773Z,997.05
2016-06-13T00:55:29.744Z,997.03
2016-06-13T00:56:30.201Z,996.98
2016-06-13T00:57:29.719Z,996.99
2016-06-13T00:58:29.691Z,996.96
2016-06-13T00:59:29.678Z,997
2016-06-13T01:00:29.650Z,996.97
2016-06-13T01:01:29.638Z,996.97
2016-06-13T01:02:29.609Z,996.98
2016-06-13T01:03:29.597Z,996.96
2016-06-13T01:04:29.568Z,996.96
2016-06-13T01:05:29.557Z,996.95
2016-06-13T01:06:29.528Z,996.94
2016-06-13T01:07:29.515Z,996.98
2016-06-13T01:08:29.488Z,996.97
2016-06-13T01:09:29.474Z,996.94
2016-06-13T01:10:29.446Z,996.91
2016-06-13T01:11:29.433Z,996.88
2016-06-13T01:12:29.406Z,996.88
2016-06-13T01:13:29.393Z,996.87
2016-06-13T01:14:29.364Z,996.86
2016-06-13T01:15:29.352Z,996.84
2016-06-13T01:16:29.324Z,996.85
2016-06-13T01:17:29.312Z,996.82
2016-06-13T01:18:29.283Z,996.81
2016-06-13T01:19:29.271Z,996.78
2016-06-13T01:20:29.242Z,996.81
2016-06-13T01:21:29.230Z,996.8
2016-06-13T01:22:29.218Z,996.77
2016-06-13T01:23:29.190Z,996.77
2016-06-13T01:24:29.161Z,996.76
2016-06-13T01:25:29.148Z,996.72
2016-06-13T01:26:29.479Z,996.73
2016-06-13T01:27:29.108Z,996.74
2016-06-13T01:28:29.080Z,996.71
2016-06-13T01:29:29.067Z,996.7
2016-06-13T01:30:29.039Z,996.71
2016-06-13T01:31:29.026Z,996.62
2016-06-13T01:32:29.014Z,996.64
2016-06-13T01:33:28.986Z,996.65
2016-06-13T01:34:28.958Z,996.61
2016-06-13T01:35:28.945Z,996.63
2016-06-13T01:36:28.916Z,996.66
2016-06-13T01:37:28.905Z,996.58
2016-06-13T01:38:28.892Z,996.53
2016-06-13T01:39:28.864Z,996.53
2016-06-13T01:40:28.835Z,996.54
2016-06-13T01:41:28.823Z,996.48
2016-06-13T01:42:28.795Z,996.49
2016-06-13T01:43:28.782Z,996.47
2016-06-13T01:44:28.754Z,996.44
2016-06-13T01:45:28.742Z,996.43
2016-06-13T01:46:28.713Z,996.4
2016-06-13T01:47:28.700Z,996.37
2016-06-13T01:48:28.688Z,996.37
2016-06-13T01:49:28.660Z,996.34
2016-06-13T01:50:28.632Z,996.4
2016-06-13T01:51:28.619Z,996.34
2016-06-13T01:52:28.590Z,996.32
2016-06-13T01:53:28.578Z,996.33
2016-06-13T01:54:28.551Z,996.32
2016-06-13T01:55:28.537Z,996.31
2016-06-13T01:56:28.728Z,996.33
2016-06-13T01:57:28.497Z,996.29
2016-06-13T01:58:28.469Z,996.29
2016-06-13T01:59:28.456Z,996.26
2016-06-13T02:00:28.428Z,996.21
2016-06-13T02:01:28.416Z,996.21
2016-06-13T02:02:28.403Z,996.18
2016-06-13T02:03:28.374Z,996.16
2016-06-13T02:04:28.347Z,996.21
2016-06-13T02:05:28.334Z,996.21
2016-06-13T02:06:28.306Z,996.21
2016-06-13T02:07:28.294Z,996.16
2016-06-13T02:08:28.280Z,996.13
2016-06-13T02:09:28.253Z,996.13
2016-06-13T02:10:28.240Z,996.09
2016-06-13T02:11:28.509Z,996.1
2016-06-13T02:12:28.199Z,996.08
2016-06-13T02:13:28.171Z,996.03
2016-06-13T02:14:28.158Z,996.03
2016-06-13T02:15:28.131Z,996.01
2016-06-13T02:16:28.102Z,995.98
2016-06-13T02:17:28.089Z,995.97
2016-06-13T02:18:28.077Z,995.94
2016-06-13T02:19:28.049Z,995.89
2016-06-13T02:20:28.037Z,995.89
2016-06-13T02:21:28.009Z,995.91
2016-06-13T02:22:27.996Z,995.9
2016-06-13T02:23:27.968Z,995.91
2016-06-13T02:24:27.939Z,995.9
2016-06-13T02:25:27.927Z,995.93
2016-06-13T02:26:27.930Z,995.87
2016-06-13T02:27:27.886Z,995.88
2016-06-13T02:28:27.873Z,995.81
2016-06-13T02:29:27.846Z,995.78
2016-06-13T02:30:27.817Z,995.79
2016-06-13T02:31:27.805Z,995.76
2016-06-13T02:32:27.793Z,995.72
2016-06-13T02:33:27.764Z,995.74
2016-06-13T02:34:27.735Z,995.77
2016-06-13T02:35:27.723Z,995.8
2016-06-13T02:36:27.711Z,995.77
2016-06-13T02:37:27.683Z,995.74
2016-06-13T02:38:27.670Z,995.7
2016-06-13T02:39:27.642Z,995.68
2016-06-13T02:40:27.629Z,995.65
2016-06-13T02:41:27.601Z,995.63
2016-06-13T02:42:27.588Z,995.59
2016-06-13T02:43:27.561Z,995.6
2016-06-13T02:44:27.548Z,995.59
2016-06-13T02:45:27.519Z,995.59
2016-06-13T02:46:27.492Z,995.55
2016-06-13T02:47:27.479Z,995.6
2016-06-13T02:48:27.467Z,995.59
2016-06-13T02:49:27.437Z,995.59
2016-06-13T02:50:27.425Z,995.58
2016-06-13T02:51:27.397Z,995.6
2016-06-13T02:52:27.385Z,995.55
2016-06-13T02:53:27.372Z,995.54
2016-06-13T02:54:27.344Z,995.53
2016-06-13T02:55:27.317Z,995.52
2016-06-13T02:56:27.303Z,995.51
2016-06-13T02:57:27.275Z,995.52
2016-06-13T02:58:27.263Z,995.48
2016-06-13T02:59:27.235Z,995.49
2016-06-13T03:00:27.222Z,995.48
2016-06-13T03:01:27.193Z,995.47
2016-06-13T03:02:27.181Z,995.45
2016-06-13T03:03:27.153Z,995.49
2016-06-13T03:04:27.141Z,995.46
2016-06-13T03:05:27.112Z,995.45
2016-06-13T03:06:27.100Z,995.43
2016-06-13T03:07:27.071Z,995.38
2016-06-13T03:08:27.060Z,995.37
2016-06-13T03:09:27.031Z,995.32
2016-06-13T03:10:27.018Z,995.31
2016-06-13T03:11:26.991Z,995.33
2016-06-13T03:12:26.978Z,995.34
2016-06-13T03:13:26.949Z,995.31
2016-06-13T03:14:26.937Z,995.25
2016-06-13T03:15:26.909Z,995.28
2016-06-13T03:16:26.895Z,995.23
2016-06-13T03:17:26.868Z,995.19
2016-06-13T03:18:26.855Z,995.21
2016-06-13T03:19:26.827Z,995.24
2016-06-13T03:20:26.815Z,995.22
2016-06-13T03:21:26.787Z,995.19
2016-06-13T03:22:26.774Z,995.18
2016-06-13T03:23:26.745Z,995.15
2016-06-13T03:24:26.733Z,995.12
2016-06-13T03:25:26.706Z,995.09
2016-06-13T03:26:26.692Z,995.05
2016-06-13T03:27:26.701Z,995.09
2016-06-13T03:28:26.714Z,995.05
2016-06-13T03:29:26.726Z,995.04
2016-06-13T03:30:26.754Z,995.02
2016-06-13T03:31:26.766Z,995.06
2016-06-13T03:32:26.780Z,995.02
2016-06-13T03:33:26.765Z,995.03
2016-06-13T03:34:26.767Z,994.98
2016-06-13T03:35:26.753Z,994.99
2016-06-13T03:36:26.756Z,995.03
2016-06-13T03:37:26.752Z,995
2016-06-13T03:38:26.729Z,995.01
2016-06-13T03:39:26.706Z,995
2016-06-13T03:40:26.699Z,995.03
2016-06-13T03:41:26.692Z,995.07
2016-06-13T03:42:26.667Z,995.08
2016-06-13T03:43:26.641Z,995.07
2016-06-13T03:44:26.630Z,995.08
2016-06-13T03:45:26.619Z,995.06
2016-06-13T03:46:26.593Z,995.1
2016-06-13T03:47:26.567Z,995.14
2016-06-13T03:48:26.555Z,995.12
2016-06-13T03:49:26.543Z,995.15
2016-06-13T03:50:26.515Z,995.12
2016-06-13T03:51:26.488Z,995.16
2016-06-13T03:52:26.477Z,995.16
2016-06-13T03:53:26.463Z,995.17
2016-06-13T03:54:26.436Z,995.18
2016-06-13T03:55:26.422Z,995.18
2016-06-13T03:56:26.395Z,995.12
2016-06-13T03:57:26.523Z,995.09
2016-06-13T03:58:26.354Z,995.11
2016-06-13T03:59:26.341Z,995.1
2016-06-13T04:00:26.329Z,995.09
2016-06-13T04:01:26.300Z,995.07
2016-06-13T04:02:26.272Z,995.04
2016-06-13T04:03:26.261Z,995.03
2016-06-13T04:04:26.231Z,995.04
2016-06-13T04:05:26.220Z,995.04
2016-06-13T04:06:26.206Z,995.01
2016-06-13T04:07:26.179Z,994.96
2016-06-13T04:08:26.151Z,994.93
2016-06-13T04:09:26.137Z,994.89
2016-06-13T04:10:26.125Z,994.94
2016-06-13T04:11:26.097Z,994.87
2016-06-13T04:12:26.069Z,994.89
2016-06-13T04:13:26.056Z,994.87
2016-06-13T04:14:26.028Z,994.85
2016-06-13T04:15:26.015Z,994.84
2016-06-13T04:16:25.988Z,994.88
2016-06-13T04:17:25.974Z,994.85
2016-06-13T04:18:25.962Z,994.81
2016-06-13T04:19:25.935Z,994.83
2016-06-13T04:20:25.906Z,994.82
2016-06-13T04:21:25.893Z,994.76
2016-06-13T04:22:25.864Z,994.76
2016-06-13T04:23:25.852Z,994.78
2016-06-13T04:24:25.840Z,994.76
2016-06-13T04:25:25.812Z,994.79
2016-06-13T04:26:25.798Z,994.81
2016-06-13T04:27:25.771Z,994.77
2016-06-13T04:28:25.743Z,994.77
2016-06-13T04:29:25.730Z,994.75
2016-06-13T04:30:25.718Z,994.7
2016-06-13T04:31:25.690Z,994.72
2016-06-13T04:32:25.677Z,994.67
2016-06-13T04:33:25.648Z,994.63
2016-06-13T04:34:25.636Z,994.68
2016-06-13T04:35:25.608Z,994.67
2016-06-13T04:36:25.596Z,994.67
2016-06-13T04:37:25.567Z,994.68
2016-06-13T04:38:25.555Z,994.67
2016-06-13T04:39:25.527Z,994.66
2016-06-13T04:40:25.514Z,994.66
2016-06-13T04:41:25.486Z,994.63
2016-06-13T04:42:25.505Z,994.65
2016-06-13T04:43:25.445Z,994.65
2016-06-13T04:44:25.433Z,994.67
2016-06-13T04:45:25.404Z,994.64
2016-06-13T04:46:25.392Z,994.64
2016-06-13T04:47:25.364Z,994.62
2016-06-13T04:48:25.351Z,994.64
2016-06-13T04:49:25.322Z,994.59
2016-06-13T04:50:25.310Z,994.64
2016-06-13T04:51:25.283Z,994.62
2016-06-13T04:52:25.270Z,994.57
2016-06-13T04:53:25.242Z,994.61
2016-06-13T04:54:25.229Z,994.58
2016-06-13T04:55:25.201Z,994.6
2016-06-13T04:56:25.188Z,994.55
2016-06-13T04:57:25.161Z,994.62
2016-06-13T04:58:25.148Z,994.58
2016-06-13T04:59:25.119Z,994.57
2016-06-13T05:00:25.106Z,994.53
2016-06-13T05:01:25.095Z,994.55
2016-06-13T05:02:25.067Z,994.58
2016-06-13T05:03:25.070Z,994.52
2016-06-13T05:04:25.026Z,994.56
2016-06-13T05:05:25.012Z,994.57
2016-06-13T05:06:24.985Z,994.53
2016-06-13T05:07:24.972Z,994.58
2016-06-13T05:08:24.944Z,994.54
2016-06-13T05:09:24.947Z,994.57
2016-06-13T05:10:24.903Z,994.54
2016-06-13T05:11:24.890Z,994.54
2016-06-13T05:12:24.862Z,994.52
2016-06-13T05:13:24.865Z,994.5
2016-06-13T05:14:24.838Z,994.48
2016-06-13T05:15:24.810Z,994.48
2016-06-13T05:16:24.780Z,994.46
2016-06-13T05:17:24.769Z,994.43
2016-06-13T05:18:24.756Z,994.42
2016-06-13T05:19:24.728Z,994.47
2016-06-13T05:20:24.715Z,994.44
2016-06-13T05:21:24.687Z,994.46
2016-06-13T05:22:24.674Z,994.46
2016-06-13T05:23:24.646Z,994.43
2016-06-13T05:24:24.634Z,994.42
2016-06-13T05:25:24.621Z,994.44
2016-06-13T05:26:24.594Z,994.41
2016-06-13T05:27:24.565Z,994.41
2016-06-13T05:28:24.552Z,994.4
2016-06-13T05:29:24.524Z,994.42
2016-06-13T05:30:24.512Z,994.36
2016-06-13T05:31:24.484Z,994.38
2016-06-13T05:32:24.471Z,994.39
2016-06-13T05:33:24.458Z,994.37
2016-06-13T05:34:24.430Z,994.37
2016-06-13T05:35:24.418Z,994.33
2016-06-13T05:36:24.389Z,994.38
2016-06-13T05:37:24.377Z,994.33
2016-06-13T05:38:24.348Z,994.37
2016-06-13T05:39:24.336Z,994.39
2016-06-13T05:40:24.323Z,994.42
2016-06-13T05:41:24.295Z,994.39
2016-06-13T05:42:24.283Z,994.38
2016-06-13T05:43:24.255Z,994.39
2016-06-13T05:44:24.227Z,994.38
2016-06-13T05:45:24.214Z,994.41
2016-06-13T05:46:24.202Z,994.35
2016-06-13T05:47:24.173Z,994.35
2016-06-13T05:48:24.161Z,994.33
2016-06-13T05:49:24.148Z,994.34
2016-06-13T05:50:24.120Z,994.32
2016-06-13T05:51:24.092Z,994.34
2016-06-13T05:52:24.079Z,994.35
2016-06-13T05:53:24.051Z,994.4
2016-06-13T05:54:24.039Z,994.37
2016-06-13T05:55:24.026Z,994.38
2016-06-13T05:56:23.997Z,994.39
2016-06-13T05:57:24.001Z,994.36
2016-06-13T05:58:23.957Z,994.35
2016-06-13T05:59:23.945Z,994.36
2016-06-13T06:00:23.916Z,994.32
2016-06-13T06:01:23.903Z,994.33
2016-06-13T06:02:23.876Z,994.28
2016-06-13T06:03:23.863Z,994.29
2016-06-13T06:04:23.850Z,994.3
2016-06-13T06:05:23.822Z,994.31
2016-06-13T06:06:23.810Z,994.3
2016-06-13T06:07:23.781Z,994.29
2016-06-13T06:08:23.769Z,994.3
2016-06-13T06:09:23.740Z,994.29
2016-06-13T06:10:23.729Z,994.33
2016-06-13T06:11:23.700Z,994.31
2016-06-13T06:12:23.687Z,994.3
2016-06-13T06:13:23.675Z,994.3
2016-06-13T06:14:23.647Z,994.25
2016-06-13T06:15:23.619Z,994.23
2016-06-13T06:16:23.606Z,994.26
2016-06-13T06:17:23.593Z,994.25
2016-06-13T06:18:23.565Z,994.27
2016-06-13T06:19:23.553Z,994.23
2016-06-13T06:20:23.524Z,994.28
2016-06-13T06:21:23.527Z,994.24
2016-06-13T06:22:23.499Z,994.22
2016-06-13T06:23:23.487Z,994.2
2016-06-13T06:24:23.459Z,994.27
2016-06-13T06:25:23.446Z,994.26
2016-06-13T06:26:23.418Z,994.26
2016-06-13T06:27:23.406Z,994.25
2016-06-13T06:28:23.377Z,994.25
2016-06-13T06:29:23.365Z,994.22
2016-06-13T06:30:23.337Z,994.21
2016-06-13T06:31:23.324Z,994.18
2016-06-13T06:32:23.296Z,994.22
2016-06-13T06:33:23.283Z,994.22
2016-06-13T06:34:23.271Z,994.23
2016-06-13T06:35:23.259Z,994.26
2016-06-13T06:36:23.231Z,994.23
2016-06-13T06:37:23.217Z,994.26
2016-06-13T06:38:23.189Z,994.17
2016-06-13T06:39:23.177Z,994.18
2016-06-13T06:40:23.149Z,994.16
2016-06-13T06:41:23.152Z,994.17
2016-06-13T06:42:23.124Z,994.13
2016-06-13T06:43:23.111Z,994.15
2016-06-13T06:44:23.083Z,994.17
2016-06-13T06:45:23.070Z,994.14
2016-06-13T06:46:23.042Z,994.17
2016-06-13T06:47:23.030Z,994.14
2016-06-13T06:48:23.001Z,994.15
2016-06-13T06:49:22.989Z,994.12
2016-06-13T06:50:22.976Z,994.15
2016-06-13T06:51:22.948Z,994.13
2016-06-13T06:52:22.936Z,994.1
2016-06-13T06:53:22.923Z,994.12
2016-06-13T06:54:22.895Z,994.12
2016-06-13T06:55:22.881Z,994.11
2016-06-13T06:56:22.854Z,994.14
2016-06-13T06:57:22.841Z,994.16
2016-06-13T06:58:22.813Z,994.17
2016-06-13T06:59:22.801Z,994.17
2016-06-13T07:00:22.788Z,994.16
2016-06-13T07:01:22.761Z,994.18
2016-06-13T07:02:22.747Z,994.13
2016-06-13T07:03:22.734Z,994.15
2016-06-13T07:04:22.707Z,994.09
2016-06-13T07:05:22.695Z,994.12
2016-06-13T07:06:22.666Z,994.17
2016-06-13T07:07:22.669Z,994.12
2016-06-13T07:08:22.641Z,994.13
2016-06-13T07:09:22.628Z,994.11
2016-06-13T07:10:22.616Z,994.1
2016-06-13T07:11:22.588Z,994.13
2016-06-13T07:12:22.762Z,994.11
2016-06-13T07:13:22.547Z,994.11
2016-06-13T07:14:22.535Z,994.13
2016-06-13T07:15:22.506Z,994.09
2016-06-13T07:16:22.494Z,994.09
2016-06-13T07:17:22.482Z,994.15
2016-06-13T07:18:22.453Z,994.11
2016-06-13T07:19:22.441Z,994.06
2016-06-13T07:20:22.427Z,994.09
2016-06-13T07:21:22.400Z,994.08
2016-06-13T07:22:22.387Z,994.08
2016-06-13T07:23:22.375Z,994.1
2016-06-13T07:24:22.346Z,994.08
2016-06-13T07:25:22.335Z,994.06
2016-06-13T07:26:22.321Z,994.04
2016-06-13T07:27:22.293Z,994.08
2016-06-13T07:28:22.594Z,994.09
2016-06-13T07:29:22.269Z,994.05
2016-06-13T07:30:22.255Z,994.05
2016-06-13T07:31:22.227Z,994.06
2016-06-13T07:32:22.214Z,994.06
2016-06-13T07:33:22.187Z,994.06
2016-06-13T07:34:22.173Z,994.06
2016-06-13T07:35:22.162Z,994.17
2016-06-13T07:36:22.133Z,994.11
2016-06-13T07:37:22.121Z,994.11
2016-06-13T07:38:22.108Z,994.08
2016-06-13T07:39:22.080Z,994.06
2016-06-13T07:40:22.067Z,994.1
2016-06-13T07:41:22.056Z,994.11
2016-06-13T07:42:22.026Z,994.09
2016-06-13T07:43:22.015Z,994.09
2016-06-13T07:44:22.002Z,994.1
2016-06-13T07:45:21.973Z,994.1
2016-06-13T07:46:21.960Z,994.09
2016-06-13T07:47:21.949Z,994.09
2016-06-13T07:48:21.920Z,994.1
2016-06-13T07:49:21.908Z,994.1
2016-06-13T07:50:21.879Z,994.08
2016-06-13T07:51:21.867Z,994.12
2016-06-13T07:52:21.839Z,994.12
2016-06-13T07:53:21.827Z,994.1
2016-06-13T07:54:21.813Z,994.12
2016-06-13T07:55:21.785Z,994.09
2016-06-13T07:56:21.789Z,994.08
2016-06-13T07:57:22.558Z,994.09
2016-06-13T07:58:21.732Z,994.11
2016-06-13T07:59:21.720Z,994.06
2016-06-13T08:00:21.692Z,994.08
2016-06-13T08:01:21.679Z,994.07
2016-06-13T08:02:21.666Z,994.1
2016-06-13T08:03:21.638Z,994.07
2016-06-13T08:04:21.626Z,994.05
2016-06-13T08:05:21.597Z,994.09
2016-06-13T08:06:21.585Z,994.08
2016-06-13T08:07:21.556Z,994.14
2016-06-13T08:08:21.544Z,994.11
2016-06-13T08:09:21.532Z,994.14
2016-06-13T08:10:21.519Z,994.1
2016-06-13T08:11:21.490Z,994.06
2016-06-13T08:12:21.479Z,994.08
2016-06-13T08:13:21.450Z,994.05
2016-06-13T08:14:21.437Z,994.07
2016-06-13T08:15:21.410Z,994.07
2016-06-13T08:16:21.396Z,994.04
2016-06-13T08:17:21.369Z,994.08
2016-06-13T08:18:21.356Z,994.04
2016-06-13T08:19:21.343Z,994.03
2016-06-13T08:20:21.315Z,994
2016-06-13T08:21:21.304Z,994
2016-06-13T08:22:21.274Z,994.01
2016-06-13T08:23:21.263Z,994.01
2016-06-13T08:24:21.249Z,994.01
2016-06-13T08:25:21.221Z,994.01
2016-06-13T08:26:21.209Z,994
2016-06-13T08:27:21.181Z,993.97
2016-06-13T08:28:21.449Z,993.97
2016-06-13T08:29:21.156Z,993.96
2016-06-13T08:30:21.127Z,994
2016-06-13T08:31:21.115Z,993.96
2016-06-13T08:32:21.087Z,993.96
2016-06-13T08:33:21.074Z,993.99
2016-06-13T08:34:21.061Z,993.94
2016-06-13T08:35:21.033Z,994.01
2016-06-13T08:36:21.021Z,994
2016-06-13T08:37:21.009Z,993.95
2016-06-13T08:38:20.981Z,993.94
2016-06-13T08:39:20.967Z,993.95
2016-06-13T08:40:20.940Z,993.94
2016-06-13T08:41:20.927Z,993.94
2016-06-13T08:42:21.445Z,993.9
2016-06-13T08:43:20.917Z,993.9
2016-06-13T08:44:20.874Z,993.92
2016-06-13T08:45:20.861Z,993.9
2016-06-13T08:46:20.833Z,993.9
2016-06-13T08:47:20.820Z,993.87
2016-06-13T08:48:20.807Z,993.87
2016-06-13T08:49:20.780Z,993.84
2016-06-13T08:50:20.767Z,993.8
2016-06-13T08:51:20.754Z,993.82
2016-06-13T08:52:20.727Z,993.85
2016-06-13T08:53:20.714Z,993.81
2016-06-13T08:54:20.700Z,993.84
2016-06-13T08:55:20.673Z,993.85
2016-06-13T08:56:20.661Z,993.84
2016-06-13T08:57:20.632Z,993.83
2016-06-13T08:58:20.620Z,993.82
2016-06-13T08:59:20.607Z,993.8
2016-06-13T09:00:20.579Z,993.83
2016-06-13T09:01:20.567Z,993.83
2016-06-13T09:02:20.554Z,993.8
2016-06-13T09:03:20.525Z,993.81
2016-06-13T09:04:20.513Z,993.8
2016-06-13T09:05:20.501Z,993.79
2016-06-13T09:06:20.472Z,993.81
2016-06-13T09:07:20.460Z,993.76
2016-06-13T09:08:20.448Z,993.77
2016-06-13T09:09:20.419Z,993.76
2016-06-13T09:10:20.407Z,993.77
2016-06-13T09:11:20.393Z,993.78
2016-06-13T09:12:20.381Z,993.73
2016-06-13T09:13:20.353Z,993.73
2016-06-13T09:14:20.341Z,993.78
2016-06-13T09:15:20.328Z,993.78
2016-06-13T09:16:20.316Z,993.78
2016-06-13T09:17:20.287Z,993.76
2016-06-13T09:18:20.274Z,993.75
2016-06-13T09:19:20.263Z,993.8
2016-06-13T09:20:20.250Z,993.82
2016-06-13T09:21:20.221Z,993.84
2016-06-13T09:22:20.209Z,993.82
2016-06-13T09:23:20.197Z,993.8
2016-06-13T09:24:20.183Z,993.8
2016-06-13T09:25:20.156Z,993.82
2016-06-13T09:26:20.143Z,993.84
2016-06-13T09:27:20.131Z,993.84
2016-06-13T09:28:20.118Z,993.82
2016-06-13T09:29:20.091Z,993.81
2016-06-13T09:30:20.077Z,993.8
2016-06-13T09:31:20.064Z,993.8
2016-06-13T09:32:20.053Z,993.79
2016-06-13T09:33:20.025Z,993.83
2016-06-13T09:34:20.012Z,993.84
2016-06-13T09:35:19.999Z,993.78
2016-06-13T09:36:19.986Z,993.81
2016-06-13T09:37:19.958Z,993.8
2016-06-13T09:38:19.946Z,993.79
2016-06-13T09:39:19.933Z,993.79
2016-06-13T09:40:19.921Z,993.79
2016-06-13T09:41:19.908Z,993.78
2016-06-13T09:42:19.880Z,993.79
2016-06-13T09:43:20.040Z,993.77
2016-06-13T09:44:19.855Z,993.75
2016-06-13T09:45:19.826Z,993.74
2016-06-13T09:46:19.814Z,993.78
2016-06-13T09:47:19.802Z,993.73
2016-06-13T09:48:19.789Z,993.66
2016-06-13T09:49:19.776Z,993.65
2016-06-13T09:50:19.748Z,993.61
2016-06-13T09:51:19.736Z,993.59
2016-06-13T09:52:19.723Z,993.6
2016-06-13T09:53:19.711Z,993.55
2016-06-13T09:54:19.698Z,993.5
2016-06-13T09:55:19.671Z,993.47
2016-06-13T09:56:19.657Z,993.5
2016-06-13T09:57:19.644Z,993.49
2016-06-13T09:58:19.680Z,993.51
2016-06-13T09:59:19.604Z,993.51
2016-06-13T10:00:19.591Z,993.45
2016-06-13T10:01:19.578Z,993.46
2016-06-13T10:02:19.567Z,993.47
2016-06-13T10:03:19.554Z,993.44
2016-06-13T10:04:19.540Z,993.41
2016-06-13T10:05:19.513Z,993.37
2016-06-13T10:06:19.501Z,993.41
2016-06-13T10:07:19.488Z,993.41
2016-06-13T10:08:19.475Z,993.37
2016-06-13T10:09:19.448Z,993.37
2016-06-13T10:10:19.434Z,993.38
2016-06-13T10:11:19.422Z,993.39
2016-06-13T10:12:19.410Z,993.39
2016-06-13T10:13:19.382Z,993.38
2016-06-13T10:14:19.368Z,993.4
2016-06-13T10:15:19.356Z,993.39
2016-06-13T10:16:19.344Z,993.43
2016-06-13T10:17:19.331Z,993.41
2016-06-13T10:18:19.303Z,993.44
2016-06-13T10:19:19.305Z,993.43
2016-06-13T10:20:19.278Z,993.43
2016-06-13T10:21:19.265Z,993.47
2016-06-13T10:22:19.253Z,993.41
2016-06-13T10:23:19.240Z,993.42
2016-06-13T10:24:19.213Z,993.39
2016-06-13T10:25:19.199Z,993.37
2016-06-13T10:26:19.187Z,993.35
2016-06-13T10:27:19.174Z,993.31
2016-06-13T10:28:19.147Z,993.3
2016-06-13T10:29:19.134Z,993.29
2016-06-13T10:30:19.120Z,993.3
2016-06-13T10:31:19.109Z,993.33
2016-06-13T10:32:19.096Z,993.34
2016-06-13T10:33:19.084Z,993.3
2016-06-13T10:34:19.071Z,993.32
2016-06-13T10:35:19.044Z,993.33
2016-06-13T10:36:19.030Z,993.29
2016-06-13T10:37:19.017Z,993.28
2016-06-13T10:38:19.005Z,993.26
2016-06-13T10:39:18.992Z,993.24
2016-06-13T10:40:18.980Z,993.26
2016-06-13T10:41:18.952Z,993.28
2016-06-13T10:42:18.940Z,993.25
2016-06-13T10:43:19.130Z,993.23
2016-06-13T10:44:18.913Z,993.27
2016-06-13T10:45:18.902Z,993.18
2016-06-13T10:46:18.889Z,993.19
2016-06-13T10:47:18.877Z,993.13
2016-06-13T10:48:18.864Z,993.11
2016-06-13T10:49:18.851Z,993.09
2016-06-13T10:50:18.839Z,993.1
2016-06-13T10:51:18.810Z,993.09
2016-06-13T10:52:18.798Z,993.1
2016-06-13T10:53:18.785Z,993.13
2016-06-13T10:54:18.773Z,993.1
2016-06-13T10:55:18.761Z,993.09
2016-06-13T10:56:18.748Z,993.07
2016-06-13T10:57:18.736Z,993.08
2016-06-13T10:58:18.770Z,993.06
2016-06-13T10:59:18.710Z,993.01
2016-06-13T11:00:18.698Z,993
2016-06-13T11:01:18.670Z,992.99
2016-06-13T11:02:18.657Z,992.97
2016-06-13T11:03:18.644Z,992.96
2016-06-13T11:04:18.632Z,992.98
2016-06-13T11:05:18.619Z,992.95
2016-06-13T11:06:18.607Z,992.92
2016-06-13T11:07:18.595Z,992.94
2016-06-13T11:08:18.582Z,992.94
2016-06-13T11:09:18.570Z,992.91
2016-06-13T11:10:18.557Z,992.93
2016-06-13T11:11:18.544Z,992.92
2016-06-13T11:12:18.532Z,992.94
2016-06-13T11:13:18.910Z,992.94
2016-06-13T11:14:18.506Z,993.01
2016-06-13T11:15:18.494Z,993.01
2016-06-13T11:16:18.466Z,993.02
2016-06-13T11:17:18.469Z,992.98
2016-06-13T11:18:18.440Z,992.98
2016-06-13T11:19:18.428Z,993.01
2016-06-13T11:20:18.416Z,992.98
2016-06-13T11:21:18.403Z,992.95
2016-06-13T11:22:18.391Z,992.94
2016-06-13T11:23:18.377Z,993
2016-06-13T11:24:18.366Z,992.97
2016-06-13T11:25:18.353Z,992.95
2016-06-13T11:26:18.340Z,992.93
2016-06-13T11:27:18.328Z,992.91
2016-06-13T11:28:18.518Z,992.96
2016-06-13T11:29:18.287Z,992.93
2016-06-13T11:30:22.040Z,992.93
2016-06-13T11:31:18.262Z,992.88
2016-06-13T11:32:18.249Z,992.88
2016-06-13T11:33:18.252Z,992.81
2016-06-13T11:34:18.225Z,992.81
2016-06-13T11:35:18.212Z,992.8
2016-06-13T11:36:18.199Z,992.82
2016-06-13T11:37:18.187Z,992.86
2016-06-13T11:38:18.174Z,992.82
2016-06-13T11:39:18.162Z,992.81
2016-06-13T11:40:18.149Z,992.74
2016-06-13T11:41:18.136Z,992.7
2016-06-13T11:42:18.124Z,992.75
2016-06-13T11:43:18.095Z,992.75
2016-06-13T11:44:18.084Z,992.74
2016-06-13T11:45:18.071Z,992.7
2016-06-13T11:46:18.058Z,992.71
2016-06-13T11:47:18.045Z,992.66
2016-06-13T11:48:18.032Z,992.63
2016-06-13T11:49:18.035Z,992.67
2016-06-13T11:50:18.007Z,992.58
2016-06-13T11:51:17.995Z,992.61
2016-06-13T11:52:17.983Z,992.63
2016-06-13T11:53:17.970Z,992.64
2016-06-13T11:54:17.958Z,992.65
2016-06-13T11:55:17.945Z,992.63
2016-06-13T11:56:17.917Z,992.63
2016-06-13T11:57:17.921Z,992.63
2016-06-13T11:58:17.891Z,992.61
2016-06-13T11:59:17.894Z,992.6
2016-06-13T12:00:17.866Z,992.61
2016-06-13T12:01:17.855Z,992.61
2016-06-13T12:02:17.842Z,992.62
2016-06-13T12:03:17.828Z,992.67
2016-06-13T12:04:17.817Z,992.65
2016-06-13T12:05:17.803Z,992.66
2016-06-13T12:06:17.790Z,992.6
2016-06-13T12:07:17.763Z,992.57
2016-06-13T12:08:17.751Z,992.59
2016-06-13T12:09:17.738Z,992.65
2016-06-13T12:10:17.725Z,992.57
2016-06-13T12:11:17.713Z,992.6
2016-06-13T12:12:17.684Z,992.59
2016-06-13T12:13:17.672Z,992.58
2016-06-13T12:14:17.659Z,992.53
2016-06-13T12:15:17.648Z,992.53
2016-06-13T12:16:17.634Z,992.5
2016-06-13T12:17:17.621Z,992.47
2016-06-13T12:18:17.594Z,992.47
2016-06-13T12:19:17.581Z,992.42
2016-06-13T12:20:17.569Z,992.46
2016-06-13T12:21:17.556Z,992.47
2016-06-13T12:22:17.544Z,992.35
2016-06-13T12:23:17.515Z,992.4
2016-06-13T12:24:17.503Z,992.37
2016-06-13T12:25:17.491Z,992.37
2016-06-13T12:26:17.477Z,992.32
2016-06-13T12:27:17.465Z,992.37
2016-06-13T12:28:17.625Z,992.38
2016-06-13T12:29:17.425Z,992.39
2016-06-13T12:30:17.412Z,992.36
2016-06-13T12:31:17.399Z,992.36